Have a Safe July 4th! 

Flight Track Log - Related Links

Times and Time Zones

All times are in EDT time to prevent confusion due to time zone crossing. See the CSN3203 flight status page for this flight to view local times or setup timezone preferences in your user account.

Time Position Orientation Groundspeed Altitude Reporting Facility
EDT Latitude Longitude Course Direction KTS MPH feet Rate Location/Type
Sun 08:17:00 PM 23.4926 113.2617 341° North  Level Estimated
Sun 08:18:00 PM 23.5927 113.2247 341° North  Level Estimated
Sun 08:19:00 PM 23.6929 113.1875 341° North  Level Estimated
Sun 08:20:00 PM 23.7930 113.1503 341° North  Level Estimated
Sun 08:21:00 PM 23.8931 113.1130 341° North  Level Estimated
Sun 08:22:00 PM 23.9932 113.0757 341° North  Level Estimated
Sun 08:23:00 PM 24.0933 113.0383 341° North  Level Estimated
Sun 08:24:00 PM 24.1934 113.0009 341° North  Level Estimated
Sun 08:25:00 PM 24.2935 112.9634 341° North  Level Estimated
Sun 08:26:00 PM 24.3936 112.9258 341° North  Level Estimated
Sun 08:27:00 PM 24.4936 112.8882 341° North  Level Estimated
Sun 08:28:00 PM 24.5937 112.8505 341° North  Level Estimated
Sun 08:29:00 PM 24.6938 112.8128 341° North  Level Estimated
Sun 08:30:00 PM 24.7938 112.7750 341° North  Level Estimated
Sun 08:31:00 PM 24.8938 112.7371 341° North  Level Estimated
Sun 08:32:00 PM 24.9938 112.6992 341° North  Level Estimated
Sun 08:33:00 PM 25.0938 112.6612 341° North  Level Estimated
Sun 08:34:00 PM 25.1938 112.6232 341° North  Level Estimated
Sun 08:35:00 PM 25.2938 112.5851 341° North  Level Estimated
Sun 08:36:00 PM 25.3938 112.5469 341° North  Level Estimated
Sun 08:37:00 PM 25.4938 112.5087 341° North  Level Estimated
Sun 08:38:00 PM 25.5938 112.4704 341° North  Level Estimated
Sun 08:39:00 PM 25.6937 112.4320 341° North  Level Estimated
Sun 08:40:00 PM 25.7936 112.3936 341° North  Level Estimated
Sun 08:41:00 PM 25.8936 112.3551 341° North  Level Estimated
Sun 08:42:00 PM 25.9935 112.3165 341° North  Level Estimated
Sun 08:43:00 PM 26.0934 112.2779 341° North  Level Estimated
Sun 08:44:00 PM 26.1933 112.2392 341° North  Level Estimated
Sun 08:45:00 PM 26.2932 112.2005 341° North  Level Estimated
Sun 08:46:00 PM 26.3931 112.1617 341° North  Level Estimated
Sun 08:47:00 PM 26.4929 112.1228 341° North  Level Estimated
Sun 08:48:00 PM 26.5928 112.0838 341° North  Level Estimated
Sun 08:49:00 PM 26.6926 112.0448 341° North  Level Estimated
Sun 08:50:00 PM 26.7925 112.0057 341° North  Level Estimated
Sun 08:51:00 PM 26.8923 111.9665 341° North  Level Estimated
Sun 08:52:00 PM 26.9921 111.9273 341° North  Level Estimated
Sun 08:53:00 PM 27.0919 111.8880 341° North  Level Estimated
Sun 08:54:00 PM 27.1917 111.8486 341° North  Level Estimated
Sun 08:55:00 PM 27.2915 111.8092 341° North  Level Estimated
Sun 08:56:00 PM 27.3913 111.7697 341° North  Level Estimated
Sun 08:57:00 PM 27.4910 111.7301 341° North  Level Estimated
Sun 08:58:00 PM 27.5908 111.6905 341° North  Level Estimated
Sun 08:59:00 PM 27.6905 111.6507 341° North  Level Estimated
Sun 09:00:00 PM 27.7902 111.6109 341° North  Level Estimated
Sun 09:01:00 PM 27.8899 111.5711 341° North  Level Estimated
Sun 09:02:00 PM 27.9896 111.5311 341° North  Level Estimated
Sun 09:03:00 PM 28.0893 111.4911 340° North  Level Estimated
Sun 09:04:00 PM 28.1890 111.4510 340° North  Level Estimated
Sun 09:05:00 PM 28.2887 111.4108 340° North  Level Estimated
Sun 09:06:00 PM 28.3883 111.3706 340° North  Level Estimated
Sun 09:07:00 PM 28.4880 111.3303 340° North  Level Estimated
Sun 09:08:00 PM 28.5876 111.2899 340° North  Level Estimated
Sun 09:09:00 PM 28.6872 111.2494 340° North  Level Estimated
Sun 09:10:00 PM 28.7868 111.2088 340° North  Level Estimated
Sun 09:11:00 PM 28.8864 111.1682 340° North  Level Estimated
Sun 09:12:00 PM 28.9860 111.1275 340° North  Level Estimated
Sun 09:13:00 PM 29.0856 111.0867 340° North  Level Estimated
Sun 09:14:00 PM 29.1851 111.0459 340° North  Level Estimated
Sun 09:15:00 PM 29.2847 111.0049 340° North  Level Estimated
Sun 09:16:00 PM 29.3842 110.9639 340° North  Level Estimated
Sun 09:17:00 PM 29.4837 110.9228 340° North  Level Estimated
Sun 09:18:00 PM 29.5832 110.8816 340° North  Level Estimated
Sun 09:19:00 PM 29.6827 110.8404 340° North  Level Estimated
Sun 09:20:00 PM 29.7822 110.7990 340° North  Level Estimated
Sun 09:21:00 PM 29.8817 110.7576 340° North  Level Estimated
Sun 09:22:00 PM 29.9811 110.7161 340° North  Level Estimated
Sun 09:23:00 PM 30.0806 110.6745 340° North  Level Estimated
Sun 09:24:00 PM 30.1800 110.6328 340° North  Level Estimated
Sun 09:25:00 PM 30.2794 110.5910 340° North  Level Estimated
Sun 09:26:00 PM 30.3788 110.5492 340° North  Level Estimated
Sun 09:27:00 PM 30.4782 110.5073 340° North  Level Estimated
Sun 09:28:00 PM 30.5776 110.4652 340° North  Level Estimated
Sun 09:29:00 PM 30.6770 110.4231 340° North  Level Estimated
Sun 09:30:00 PM 30.7763 110.3810 340° North  Level Estimated
Sun 09:31:00 PM 30.8756 110.3387 340° North  Level Estimated
Sun 09:32:00 PM 30.9750 110.2963 340° North  Level Estimated
Sun 09:33:00 PM 31.0743 110.2539 340° North  Level Estimated
Sun 09:34:00 PM 31.1736 110.2113 340° North  Level Estimated
Sun 09:35:00 PM 31.2728 110.1687 340° North  Level Estimated
Sun 09:36:00 PM 31.3721 110.1260 340° North  Level Estimated
Sun 09:37:00 PM 31.4714 110.0832 340° North  Level Estimated
Sun 09:38:00 PM 31.5706 110.0403 340° North  Level Estimated
Sun 09:39:00 PM 31.6698 109.9973 340° North  Level Estimated
Sun 09:40:00 PM 31.7690 109.9542 340° North  Level Estimated
Sun 09:41:00 PM 31.8682 109.9110 340° North  Level Estimated
Sun 09:42:00 PM 31.9674 109.8677 340° North  Level Estimated
Sun 09:43:00 PM 32.0666 109.8244 340° North  Level Estimated
Sun 09:44:00 PM 32.1657 109.7809 340° North  Level Estimated
Sun 09:45:00 PM 32.2649 109.7374 340° North  Level Estimated
Sun 09:46:00 PM 32.3640 109.6937 340° North  Level Estimated
Sun 09:47:00 PM 32.4631 109.6499 340° North  Level Estimated
Sun 09:48:00 PM 32.5622 109.6061 340° North  Level Estimated
Sun 09:49:00 PM 32.6613 109.5622 340° North  Level Estimated
Sun 09:50:00 PM 32.7603 109.5181 340° North  Level Estimated
Sun 09:51:00 PM 32.8593 109.4740 339° North  Level Estimated
Sun 09:52:00 PM 32.9584 109.4298 339° North  Level Estimated
Sun 09:53:00 PM 33.0574 109.3854 339° North  Level Estimated
Sun 09:54:00 PM 33.1564 109.3410 339° North  Level Estimated
Sun 09:55:00 PM 33.2554 109.2965 339° North  Level Estimated
Sun 09:56:00 PM 33.3543 109.2518 339° North  Level Estimated
Sun 09:57:00 PM 33.4533 109.2071 339° North  Level Estimated
Sun 09:58:00 PM 33.5522 109.1623 339° North  Level Estimated
Sun 09:59:00 PM 33.6511 109.1173 339° North  Level Estimated
Sun 10:00:00 PM 33.7500 109.0723 339° North  Level Estimated
Sun 10:01:00 PM 33.8489 109.0271 339° North  Level Estimated
Sun 10:02:00 PM 33.9478 108.9819 339° North  Level Estimated
Sun 10:03:00 PM 34.0466 108.9365 339° North  Level Estimated
Sun 10:04:00 PM 34.1455 108.8911 339° North  Level Estimated
Sun 10:05:00 PM 34.2443 108.8455 339° North  Level Estimated
Sun 10:06:00 PM 34.3431 108.7998 339° North  Level Estimated
Sun 10:07:00 PM 34.4419 108.7540 339° North  Level Estimated
Sun 10:08:00 PM 34.4471 108.7516 339° North  Level Estimated
Sun 10:09:00 PM 34.4471 108.7516 121° Southeast  Level Estimated
Sun 10:10:00 PM 34.4471 108.7516 121° Southeast  Level Estimated
Sun 10:11:00 PM 34.4471 108.7516 121° Southeast  Level Estimated
Sun 10:12:00 PM 34.4471 108.7516 121° Southeast  Level Estimated
Sun 10:13:00 PM 34.4471 108.7516 121° Southeast  Level Estimated
Sun 10:14:00 PM 34.4471 108.7516 121° Southeast  Level Estimated

Login

Don't have an account? Register now (free) for customized features, flight alerts, and more!